• Join FlightAware (Why Join?)
  • Login
  • US Flag 
11:06PM EST


 

Airport Tracker/Info


-or-


 

Live Flight TrackerFlight Track Log ✈ DAL268 ✈ 11-Sep-2013 ✈ KJFK - LLBG / TLV

Flight Track Log - Related Links

Times and Time Zones

All times are in EDT time to prevent confusion due to time zone crossing. See the DAL268 flight status page for this flight to view local times or setup timezone preferences in your user account.

Time Position Orientation Groundspeed Altitude Reporting Facility
EDT Latitude Longitude Course Direction KTS MPH feet Rate Location/Type
10:04PM 40.6390 -73.7720 217° Southwest 120 138  Level FlightAware
10:05PM 40.6250 -73.7840 213° Southwest 177 204 100 1,140 Climbing FlightAware
10:05PM 40.6100 -73.7960 211° Southwest 171 197 900 1,620 Climbing FlightAware
10:06PM 40.5930 -73.8070 206° Southwest 192 221 1,300 960 Climbing FlightAware
10:06PM 40.5860 -73.8090 192° South 206 237 1,400 840 Climbing FlightAware
10:06PM 40.5600 -73.7910 152° Southeast 251 289 1,800 780 Climbing FlightAware
10:06PM 40.5540 -73.7790 123° Southeast 262 302 1,900 600 Climbing FlightAware
10:06PM 40.5500 -73.7620 107° East 275 316 2,000 1,080 Climbing FlightAware
10:07PM 40.5510 -73.7130 88° East 291 335 2,600 1,320 Climbing FlightAware
10:07PM 40.5530 -73.6770 86° East 306 352 3,100 1,860 Climbing FlightAware
10:08PM 40.5530 -73.6430 90° East 307 353 3,800 2,100 Climbing FlightAware
10:08PM 40.5540 -73.6020 88° East 312 359 4,600 2,220 Climbing FlightAware
10:08PM 40.5540 -73.5400 90° East 317 365 5,800 2,280 Climbing FlightAware
10:09PM 40.5550 -73.5010 88° East 321 369 6,500 1,980 Climbing FlightAware
10:09PM 40.5550 -73.4470 90° East 325 374 7,400 2,100 Climbing FlightAware
10:10PM 40.5560 -73.4070 88° East 326 375 8,200 2,160 Climbing FlightAware
10:10PM 40.5570 -73.3770 87° East 328 377 8,700 2,280 Climbing FlightAware
10:10PM 40.5570 -73.3350 90° East 325 374 9,600 1,980 Climbing FlightAware
10:11PM 40.5570 -73.2630 90° East 339 390 10,600 1,260 Climbing FlightAware
10:11PM 40.5580 -73.1950 89° East 362 417 11,100 960 Climbing FlightAware
10:12PM 40.5580 -73.1100 90° East 389 448 11,700 1,140 Climbing FlightAware
10:12PM 40.5590 -73.0400 89° East 402 463 12,400 1,560 Climbing FlightAware
10:13PM 40.5780 -72.9370 76° East 423 487 13,600 1,800 Climbing FlightAware
10:14PM 40.5950 -72.8740 70° East 426 490 14,600 1,920 Climbing FlightAware
10:14PM 40.6180 -72.7840 71° East 437 503 15,700 1,860 Climbing FlightAware
10:15PM 40.6440 -72.6790 72° East 448 516 16,900 1,860 Climbing FlightAware
10:15PM 40.6680 -72.5850 71° East 452 520 18,100 1,920 Climbing FlightAware
10:16PM 40.6880 -72.5090 71° East 459 528 19,000 1,560 Climbing FlightAware
10:17PM 40.7110 -72.4180 72° East 466 536 19,800 1,440 Climbing FlightAware
10:17PM 40.7360 -72.3200 71° East 474 545 20,700 1,500 Climbing FlightAware
10:18PM 40.7640 -72.2060 72° East 483 556 21,700 1,320 Climbing FlightAware
10:18PM 40.7830 -72.1300 72° East 489 563 22,200 1,320 Climbing FlightAware
10:19PM 40.8130 -72.0100 72° East 497 572 23,200 840 Climbing FlightAware
10:20PM 40.8430 -71.8870 72° East 502 578 23,500 1,080 Climbing FlightAware
10:20PM 40.8700 -71.7750 72° East 514 592 24,700 960 Climbing FlightAware
10:21PM 40.8950 -71.6750 72° East 514 592 24,700 1,140 Level FlightAware
10:22PM 40.9230 -71.5570 73° East 520 598 26,100 1,800 Climbing FlightAware
10:22PM 40.9510 -71.4440 72° East 530 610 26,800 1,140 Climbing FlightAware
10:23PM 40.9900 -71.2790 73° East 534 615 27,800 840 Climbing FlightAware
10:24PM 41.0240 -71.1380 72° East 534 615 28,300 1,440 Climbing FlightAware
10:24PM 41.0570 -71.0630 60° Northeast 523 602 29,500 1,860 Climbing FlightAware
10:25PM 41.1200 -70.9440 55° Northeast 527 606 30,300 1,020 Climbing FlightAware
10:26PM 41.1790 -70.8370 54° Northeast 521 600 31,000 540 Climbing FlightAware
10:26PM 41.2210 -70.7600 54° Northeast 521 600 31,000  Level FlightAware
10:27PM 41.2940 -70.6300 53° Northeast 518 596 31,000  Level FlightAware
10:28PM 41.3390 -70.5520 52° Northeast 518 596 31,000  Level FlightAware
10:28PM 41.3840 -70.4710 53° Northeast 518 596 31,000  Level FlightAware
10:29PM 41.4490 -70.3500 54° Northeast 517 595 31,000  Level FlightAware
10:29PM 41.4930 -70.2720 53° Northeast 517 595 31,000  Level FlightAware
10:30PM 41.5370 -70.1930 53° Northeast 517 595 31,000  Level FlightAware
10:31PM 41.5810 -70.1150 53° Northeast 517 595 31,000  Level FlightAware
10:31PM 41.6260 -70.0350 53° Northeast 517 595 31,000  Level FlightAware
10:32PM 41.6700 -69.9570 53° Northeast 517 595 31,000  Level FlightAware
10:33PM 41.7140 -69.8780 53° Northeast 517 595 31,000  Level FlightAware
10:33PM 41.7580 -69.8000 53° Northeast 517 595 31,000  Level FlightAware
10:34PM 41.8020 -69.7220 53° Northeast 517 595 31,000  Level FlightAware
10:34PM 41.8460 -69.6430 53° Northeast 517 595 31,000  Level FlightAware
10:35PM 41.8910 -69.5650 52° Northeast 517 595 31,000  Level FlightAware
10:35PM 42.0070 -69.2910 60° Northeast 519 597 31,000  Level FlightAware
10:36PM 42.0570 -69.1950 55° Northeast 521 600 31,000  Level FlightAware
10:37PM 42.1110 -69.0900 55° Northeast 522 601 31,000  Level FlightAware
10:37PM 42.1530 -69.0090 55° Northeast 523 602 31,000  Level FlightAware
10:38PM 42.2020 -68.9140 55° Northeast 523 602 31,000  Level FlightAware
10:38PM 42.2570 -68.8050 56° Northeast 525 604 31,000  Level FlightAware
10:39PM 42.2950 -68.7290 56° Northeast 525 604 31,000  Level FlightAware
10:40PM 42.3370 -68.6460 56° Northeast 525 604 31,000  Level FlightAware
10:40PM 42.3800 -68.5600 56° Northeast 525 604 31,000  Level FlightAware
10:41PM 42.4210 -68.4770 56° Northeast 525 604 31,000  Level FlightAware
10:41PM 42.4630 -68.3930 56° Northeast 525 604 31,000  Level FlightAware
10:42PM 42.5060 -68.3070 56° Northeast 525 604 31,000  Level FlightAware
10:43PM 42.5470 -68.2240 56° Northeast 525 604 31,000  Level FlightAware
10:43PM 42.5900 -68.1380 56° Northeast 525 604 31,000  Level FlightAware
10:44PM 42.6310 -68.0540 56° Northeast 525 604 31,000  Level FlightAware
10:44PM 42.6730 -67.9700 56° Northeast 525 604 31,000  Level FlightAware
10:45PM 42.7140 -67.8860 56° Northeast 525 604 31,000  Level FlightAware
10:46PM 42.7570 -67.8000 56° Northeast 525 604 31,000  Level FlightAware
10:46PM 42.7990 -67.7160 56° Northeast 525 604 31,000  Level FlightAware
10:47PM 42.8400 -67.6320 56° Northeast 525 604 31,000  Level FlightAware
10:47PM 42.8820 -67.5480 56° Northeast 525 604 31,000  Level FlightAware
10:48PM 42.9230 -67.4640 56° Northeast 525 604 31,000  Level FlightAware
10:49PM 43.1300 -67.0410 56° Northeast 542 624 31,000  Level FlightAware
10:50PM 43.1730 -66.9500 57° Northeast 542 624 31,000  Level FlightAware
10:50PM 43.2150 -66.8620 57° Northeast 542 624 31,000  Level FlightAware
10:51PM 43.2570 -66.7740 57° Northeast 542 624 31,000  Level FlightAware
10:51PM 43.2980 -66.6250 69° East 31,000  Level FlightAware
10:52PM 43.3670 -66.4470 62° Northeast 557 641 31,000  Level FlightAware
10:53PM 43.4240 -66.3030 61° Northeast 548 631 31,000  Level FlightAware
10:54PM 43.4650 -66.1950 62° Northeast 549 632 31,000  Level FlightAware
10:54PM 43.5090 -66.0800 62° Northeast 549 632 31,000  Level FlightAware
10:55PM 43.5510 -65.9720 62° Northeast 548 631 31,000  Level FlightAware
10:55PM 43.5910 -65.8640 63° Northeast 544 626 31,000  Level FlightAware
10:56PM 43.6330 -65.7560 62° Northeast 544 626 31,000  Level FlightAware
10:56PM 43.6740 -65.6470 62° Northeast 544 626 31,000  Level FlightAware
10:57PM 43.7150 -65.5390 62° Northeast 543 625 31,000  Level FlightAware
10:58PM 43.7550 -65.4300 63° Northeast 544 626 31,000  Level FlightAware
10:58PM 43.8020 -65.3060 62° Northeast 544 626 31,000  Level FlightAware
10:59PM 43.8430 -65.1960 63° Northeast 545 627 31,000  Level FlightAware
11:00PM 43.8900 -65.0680 63° Northeast 545 627 31,000  Level FlightAware
11:00PM 43.9230 -64.9800 62° Northeast 546 628 31,000  Level FlightAware
11:01PM 43.9760 -64.8360 63° Northeast 546 628 31,000  Level FlightAware
11:01PM 44.0210 -64.7130 63° Northeast 550 633 31,000  Level FlightAware
11:02PM 44.0590 -64.6090 63° Northeast 551 634 31,000  Level FlightAware
11:03PM 44.1060 -64.4770 64° Northeast 551 634 31,000  Level FlightAware
11:03PM 44.1510 -64.3530 63° Northeast 551 634 31,000  Level FlightAware
11:04PM 44.1890 -64.2460 64° Northeast 549 632 31,000  Level FlightAware
11:05PM 44.2290 -64.1350 63° Northeast 546 628 31,000  Level FlightAware
11:05PM 44.2660 -64.0310 64° Northeast 545 627 31,000  Level FlightAware
11:06PM 44.3020 -63.9310 63° Northeast 542 624 31,000  Level FlightAware
11:06PM 44.3530 -63.7880 63° Northeast 538 619 31,000  Level FlightAware
11:07PM 44.3920 -63.6760 64° Northeast 537 618 31,000  Level FlightAware
11:08PM 44.4290 -63.5700 64° Northeast 536 617 31,000  Level FlightAware
11:08PM 44.4690 -63.4580 63° Northeast 536 617 31,000  Level FlightAware
11:09PM 44.5050 -63.3520 65° Northeast 536 617 31,000  Level FlightAware
11:09PM 44.5420 -63.2460 64° Northeast 536 617 31,000  Level FlightAware
11:10PM 44.5800 -63.1340 64° Northeast 536 617 31,000  Level FlightAware
11:10PM 44.6170 -63.0270 64° Northeast 537 618 31,000  Level FlightAware
11:11PM 44.6520 -62.9270 64° Northeast 537 618 31,000  Level FlightAware
11:12PM 44.6940 -62.8010 65° Northeast 538 619 31,000  Level FlightAware
11:12PM 44.7310 -62.6940 64° Northeast 538 619 31,000  Level FlightAware
11:13PM 44.7690 -62.5800 65° Northeast 538 619 31,000  Level FlightAware
11:14PM 44.8160 -62.4410 64° Northeast 538 619 31,000  Level FlightAware
11:14PM 44.8480 -62.3440 65° Northeast 537 618 31,000  Level FlightAware
11:15PM 44.8810 -62.2470 64° Northeast 537 618 31,000  Level FlightAware
11:15PM 44.9130 -62.1490 65° Northeast 537 618 31,000  Level FlightAware
11:16PM 44.9450 -62.0520 65° Northeast 537 618 31,000  Level FlightAware
11:17PM 44.9770 -61.9550 65° Northeast 537 618 31,000  Level FlightAware
11:17PM 45.0090 -61.8570 65° Northeast 537 618 31,000  Level FlightAware
11:18PM 45.0410 -61.7600 65° Northeast 537 618 31,000  Level FlightAware
11:18PM 45.0730 -61.6620 65° Northeast 537 618 31,000  Level FlightAware
11:19PM 45.1050 -61.5650 65° Northeast 537 618 31,000  Level FlightAware
11:20PM 45.1380 -61.4670 64° Northeast 537 618 31,000  Level FlightAware
11:20PM 45.1700 -61.3690 65° Northeast 537 618 31,000  Level FlightAware
11:21PM 45.2700 -61.0520 66° East 537 618 31,000  Level FlightAware
11:21PM 45.3060 -60.9400 65° Northeast 538 619 31,000  Level FlightAware
11:22PM 45.3430 -60.8230 66° East 539 620 31,000  Level FlightAware
11:22PM 45.3760 -60.7200 65° Northeast 539 620 31,000  Level FlightAware
11:23PM 45.4130 -60.6000 66° East 538 619 31,000  Level FlightAware
11:24PM 45.4490 -60.4840 66° East 539 620 31,000  Level FlightAware
11:24PM 45.4850 -60.3670 66° East 539 620 31,000  Level FlightAware
11:25PM 45.5180 -60.2630 66° East 538 619 31,000  Level FlightAware
11:25PM 45.5560 -60.1400 66° East 538 619 31,000  Level FlightAware
11:26PM 45.5910 -60.0230 67° East 539 620 31,000  Level FlightAware
11:27PM 45.6230 -59.9220 66° East 538 619 31,000  Level FlightAware
11:27PM 45.6580 -59.8040 67° East 538 619 31,000  Level FlightAware
11:28PM 45.6950 -59.6830 66° East 539 620 31,000  Level FlightAware
11:28PM 45.7250 -59.5820 67° East 540 621 31,000  Level FlightAware
11:29PM 45.7610 -59.4630 67° East 541 623 31,000  Level FlightAware
11:30PM 45.7960 -59.3450 67° East 543 625 31,000  Level FlightAware
11:30PM 45.8320 -59.2220 67° East 545 627 31,000  Level FlightAware
11:31PM 45.8640 -59.1160 67° East 545 627 31,000  Level FlightAware
11:31PM 45.9010 -58.9890 67° East 544 626 31,000  Level FlightAware
11:32PM 45.9340 -58.8760 67° East 545 627 31,000  Level FlightAware
11:32PM 45.9690 -58.7560 67° East 546 628 31,000  Level FlightAware
11:33PM 46.0000 -58.6490 67° East 547 629 31,000  Level FlightAware
11:34PM 46.0300 -58.5440 68° East 548 631 31,000  Level FlightAware
11:34PM 46.0680 -58.4120 67° East 550 633 31,000  Level FlightAware
11:35PM 46.1050 -58.2840 67° East 552 635 31,000  Level FlightAware
11:35PM 46.1350 -58.1780 68° East 551 634 31,000  Level FlightAware
11:36PM 46.1790 -58.0250 67° East 551 634 31,000  Level FlightAware
11:37PM 46.2100 -57.9210 67° East 551 634 31,000  Level FlightAware
11:37PM 46.2400 -57.8170 67° East 551 634 31,000  Level FlightAware
11:38PM 46.2710 -57.7140 66° East 551 634 31,000  Level FlightAware
11:39PM 46.3010 -57.6100 67° East 551 634 31,000  Level FlightAware
11:39PM 46.3320 -57.5060 67° East 551 634 31,000  Level FlightAware
11:40PM 46.3860 -57.2780 71° East 544 626 31,000  Level FlightAware
11:40PM 46.4150 -57.1750 68° East 544 626 31,000  Level FlightAware
11:41PM 46.4500 -57.0410 69° East 544 626 31,000  Level FlightAware
11:42PM 46.4790 -56.9300 69° East 544 626 31,000  Level FlightAware
11:42PM 46.5120 -56.7980 70° East 544 626 31,000  Level FlightAware
11:43PM 46.5420 -56.6780 70° East 545 627 31,000  Level FlightAware
11:43PM 46.5720 -56.5610 70° East 545 627 31,000  Level FlightAware
11:44PM 46.6040 -56.4340 70° East 544 626 31,000  Level FlightAware
11:45PM 46.6420 -56.2830 70° East 543 625 31,000  Level FlightAware
11:45PM 46.6680 -56.1800 70° East 544 626 31,000  Level FlightAware
11:46PM 46.6960 -56.0630 71° East 544 626 31,000  Level FlightAware
11:46PM 46.7310 -55.9220 70° East 542 624 31,000  Level FlightAware
11:47PM 46.7590 -55.8090 70° East 543 625 31,000  Level FlightAware
11:47PM 46.7830 -55.7120 70° East 543 625 31,000  Level FlightAware
11:48PM 46.8150 -55.5810 70° East 544 626 31,000  Level FlightAware
11:49PM 46.8450 -55.4560 71° East 544 626 31,000  Level FlightAware
11:49PM 46.8730 -55.3420 70° East 544 626 31,000  Level FlightAware
11:50PM 46.9020 -55.2140 72° East 543 625 31,000  Level FlightAware
11:50PM 46.9340 -55.0820 70° East 542 624 31,000  Level FlightAware
11:51PM 46.9600 -54.9750 70° East 543 625 31,000  Level FlightAware
11:52PM 46.9870 -54.8560 72° East 545 627 31,000  Level FlightAware
11:52PM 47.0280 -54.6780 71° East 547 629 31,000  Level FlightAware
11:53PM 47.0540 -54.5700 71° East 547 629 31,000  Level FlightAware
11:53PM 47.0830 -54.4430 71° East 546 628 31,000  Level FlightAware
11:54PM 47.1100 -54.3240 72° East 546 628 31,000  Level FlightAware
11:55PM 47.1410 -54.1870 72° East 546 628 31,000  Level FlightAware
11:55PM 47.1650 -54.0810 72° East 547 629 31,000  Level FlightAware
11:56PM 47.1950 -53.9470 72° East 548 631 31,000  Level FlightAware
11:56PM 47.2240 -53.8200 71° East 547 629 31,000  Level FlightAware
11:57PM 47.2510 -53.6960 72° East 546 628 31,000  Level FlightAware
11:58PM 47.2770 -53.5800 72° East 545 627 31,000  Level FlightAware
11:58PM 47.3060 -53.4530 71° East 545 627 31,000  Level FlightAware
11:59PM 47.3330 -53.3290 72° East 545 627 31,000  Level FlightAware
11:59PM 47.3570 -53.2160 73° East 544 626 31,000  Level FlightAware
12:00AM 47.3840 -53.0890 73° East 545 627 31,000  Level FlightAware
12:00AM 47.4110 -52.9610 73° East 543 625 31,000  Level FlightAware
12:01AM 47.4390 -52.8310 72° East 543 625 31,000  Level FlightAware
12:02AM 47.4630 -52.7210 72° East 542 624 31,000 120 Level FlightAware
12:02AM 47.4900 -52.5940 72° East 544 626 31,200 600 Climbing FlightAware
12:03AM 47.5140 -52.4770 73° East 546 628 31,700 900 Climbing FlightAware
12:03AM 47.5440 -52.3340 73° East 550 633 32,300 900 Climbing FlightAware
12:04AM 47.5680 -52.2180 73° East 552 635 32,800 600 Climbing FlightAware
12:05AM 47.5950 -52.0840 73° East 553 636 33,000 120 Climbing FlightAware
12:05AM 47.6220 -51.9510 73° East 551 634 33,000  Level FlightAware
12:06AM 47.6460 -51.8390 72° East 548 631 33,000  Level FlightAware
12:06AM 47.6720 -51.7060 74° East 547 629 33,000  Level FlightAware
12:07AM 47.6970 -51.5800 74° East 546 628 33,000  Level FlightAware
12:07AM 47.7200 -51.4680 73° East 546 628 33,000  Level FlightAware
12:08AM 47.7430 -51.3580 73° East 546 628 33,000  Level FlightAware
12:09AM 47.7650 -51.2480 73° East 546 628 33,000  Level FlightAware
12:09AM 47.7880 -51.1380 73° East 546 628 33,000  Level FlightAware
12:10AM 47.8100 -51.0280 73° East 546 628 33,000  Level FlightAware
12:10AM 47.8330 -50.9180 73° East 546 628 33,000  Level FlightAware
12:11AM 47.8560 -50.8080 73° East 546 628 33,000  Level FlightAware
12:12AM 47.8820 -50.6790 73° East 546 628 33,000  Level FlightAware
12:12AM 47.9050 -50.5660 73° East 546 628 33,000  Level FlightAware
12:13AM 47.9280 -50.4560 73° East 546 628 33,000  Level FlightAware
12:14AM 47.9500 -50.3450 73° East 546 628 33,000  Level FlightAware
12:14AM 47.9730 -50.2350 73° East 546 628 33,000  Level FlightAware
12:15AM 47.9950 -50.1240 73° East 546 628 33,000  Level FlightAware
12:15AM 48.0190 -50.0110 72° East 546 628 33,000  Level FlightAware
12:16AM 48.0400 -49.9070 73° East 546 628 33,000  Level FlightAware
12:17AM 48.0630 -49.7960 73° East 546 628 33,000  Level FlightAware
12:18AM 48.1667 -49.2000 73° East 550 633 33,000  Level Gander Center
12:19AM 48.2167 -49.0167 68° East 540 621 33,000  Level Gander Center
12:20AM 48.2667 -48.7667 73° East 550 633 33,000  Level Gander Center
12:22AM 48.3833 -48.2833 70° East 570 656 33,000  Level Gander Center
12:23AM 48.4333 -48.0333 73° East 570 656 33,000  Level Gander Center
12:24AM 48.5000 -47.8167 65° Northeast 560 644 33,000  Level Gander Center
12:26AM 48.5704 -47.5113 71° East  Level FlightAware Approximate
12:27AM 48.6500 -47.2167 71° East 590 679 33,000  Level Gander Center
12:28AM 48.6833 -47.0000 77° East 570 656 33,000  Level Gander Center
12:30AM 48.8000 -46.5833 67° East 580 667 33,000  Level Gander Center
12:32AM 48.8808 -46.2052 72° East  Level FlightAware Approximate
12:39AM 49.1916 -44.6807 72° East  Level FlightAware Approximate
12:40AM 49.2343 -44.4614 73° East  Level FlightAware Approximate
12:41AM 49.2766 -44.2417 73° East  Level FlightAware Approximate
12:42AM 49.3186 -44.0216 74° East  Level FlightAware Approximate
12:43AM 49.3600 -43.8011 74° East  Level FlightAware Approximate
12:44AM 49.4011 -43.5803 74° East  Level FlightAware Approximate
12:45AM 49.4418 -43.3591 74° East  Level FlightAware Approximate
12:46AM 49.4820 -43.1376 74° East  Level FlightAware Approximate
12:47AM 49.5218 -42.9156 74° East  Level FlightAware Approximate
12:48AM 49.5612 -42.6934 75° East  Level FlightAware Approximate
12:49AM 49.6001 -42.4707 75° East  Level FlightAware Approximate
12:50AM 49.6387 -42.2477 75° East  Level FlightAware Approximate
12:51AM 49.6768 -42.0244 75° East  Level FlightAware Approximate
12:52AM 49.7144 -41.8007 75° East  Level FlightAware Approximate
12:53AM 49.7517 -41.5767 75° East  Level FlightAware Approximate
12:54AM 49.7885 -41.3523 76° East  Level FlightAware Approximate
12:55AM 49.8248 -41.1276 76° East  Level FlightAware Approximate
12:56AM 49.8608 -40.9025 76° East  Level FlightAware Approximate
12:57AM 49.8963 -40.6771 76° East  Level FlightAware Approximate
12:58AM 49.9314 -40.4514 76° East  Level FlightAware Approximate
12:59AM 49.9660 -40.2254 77° East  Level FlightAware Approximate
01:00AM 50.0002 -39.9986 77° East  Level FlightAware Approximate
01:01AM 50.0321 -39.7783 77° East  Level FlightAware Approximate
01:02AM 50.0635 -39.5577 77° East  Level FlightAware Approximate
01:03AM 50.0946 -39.3368 78° East  Level FlightAware Approximate
01:04AM 50.1252 -39.1156 78° East  Level FlightAware Approximate
01:05AM 50.1554 -38.8942 78° East  Level FlightAware Approximate
01:06AM 50.1852 -38.6724 78° East  Level FlightAware Approximate
01:07AM 50.2145 -38.4504 78° East  Level FlightAware Approximate
01:08AM 50.2435 -38.2281 78° East  Level FlightAware Approximate
01:09AM 50.2720 -38.0056 79° East  Level FlightAware Approximate
01:10AM 50.3000 -37.7828 79° East  Level FlightAware Approximate
01:11AM 50.3277 -37.5597 79° East  Level FlightAware Approximate
01:12AM 50.3549 -37.3364 79° East  Level FlightAware Approximate
01:13AM 50.3817 -37.1128 79° East  Level FlightAware Approximate
01:14AM 50.4081 -36.8890 79° East  Level FlightAware Approximate
01:15AM 50.4340 -36.6649 80° East  Level FlightAware Approximate
01:16AM 50.4595 -36.4406 80° East  Level FlightAware Approximate
01:17AM 50.4846 -36.2160 80° East  Level FlightAware Approximate
01:18AM 50.5093 -35.9912 80° East  Level FlightAware Approximate
01:19AM 50.5335 -35.7661 80° East  Level FlightAware Approximate
01:20AM 50.5573 -35.5409 80° East  Level FlightAware Approximate
01:21AM 50.5806 -35.3154 81° East  Level FlightAware Approximate
01:22AM 50.6035 -35.0897 81° East  Level FlightAware Approximate
01:23AM 50.6260 -34.8638 81° East  Level FlightAware Approximate
01:24AM 50.6480 -34.6376 81° East  Level FlightAware Approximate
01:25AM 50.6696 -34.4113 81° East  Level FlightAware Approximate
01:26AM 50.6908 -34.1847 82° East  Level FlightAware Approximate
01:27AM 50.7115 -33.9579 82° East  Level FlightAware Approximate
01:28AM 50.7318 -33.7310 82° East  Level FlightAware Approximate
01:29AM 50.7516 -33.5038 82° East  Level FlightAware Approximate
01:30AM 50.7710 -33.2765 82° East  Level FlightAware Approximate
01:31AM 50.7899 -33.0490 82° East  Level FlightAware Approximate
01:32AM 50.8084 -32.8212 83° East  Level FlightAware Approximate
01:33AM 50.8265 -32.5933 83° East  Level FlightAware Approximate
01:34AM 50.8441 -32.3653 83° East  Level FlightAware Approximate
01:35AM 50.8613 -32.1370 83° East  Level FlightAware Approximate
01:36AM 50.8780 -31.9086 83° East  Level FlightAware Approximate
01:37AM 50.8943 -31.6801 83° East  Level FlightAware Approximate
01:38AM 50.9101 -31.4514 84° East  Level FlightAware Approximate
01:39AM 50.9255 -31.2225 84° East  Level FlightAware Approximate
01:40AM 50.9405 -30.9935 84° East  Level FlightAware Approximate
01:41AM 50.9550 -30.7643 84° East  Level FlightAware Approximate
01:42AM 50.9690 -30.5350 84° East  Level FlightAware Approximate
01:43AM 50.9826 -30.3055 85° East  Level FlightAware Approximate
01:44AM 50.9957 -30.0763 85° East  Level FlightAware Approximate
01:45AM 51.0056 -29.8467 87° East  Level FlightAware Approximate
01:46AM 51.0137 -29.6168 87° East  Level FlightAware Approximate
01:47AM 51.0213 -29.3869 87° East  Level FlightAware Approximate
01:48AM 51.0285 -29.1569 87° East  Level FlightAware Approximate
01:49AM 51.0352 -28.9268 87° East  Level FlightAware Approximate
01:50AM 51.0414 -28.6966 87° East  Level FlightAware Approximate
01:51AM 51.0472 -28.4664 88° East  Level FlightAware Approximate
01:52AM 51.0526 -28.2362 88° East  Level FlightAware Approximate
01:53AM 51.0575 -28.0058 88° East  Level FlightAware Approximate
01:54AM 51.0619 -27.7755 88° East  Level FlightAware Approximate
01:55AM 51.0659 -27.5450 88° East  Level FlightAware Approximate
01:56AM 51.0711 -27.3147 88° East  Level FlightAware Approximate
01:57AM 51.0763 -27.0843 88° East  Level FlightAware Approximate
01:58AM 51.0810 -26.8538 88° East  Level FlightAware Approximate
01:59AM 51.0852 -26.6234 88° East  Level FlightAware Approximate
02:00AM 51.0890 -26.3928 88° East  Level FlightAware Approximate
02:01AM 51.0924 -26.1623 89° East  Level FlightAware Approximate
02:02AM 51.0953 -25.9317 89° East  Level FlightAware Approximate
02:03AM 51.0977 -25.7010 89° East  Level FlightAware Approximate
02:04AM 51.0997 -25.4704 89° East  Level FlightAware Approximate
02:05AM 51.1012 -25.2397 89° East  Level FlightAware Approximate
02:06AM 51.1023 -25.0091 89° East  Level FlightAware Approximate
02:07AM 51.1029 -24.7784 90° East  Level FlightAware Approximate
02:08AM 51.1031 -24.5477 90° East  Level FlightAware Approximate
02:09AM 51.1028 -24.3170 90° East  Level FlightAware Approximate
02:10AM 51.1020 -24.0863 90° East  Level FlightAware Approximate
02:11AM 51.1008 -23.8556 90° East  Level FlightAware Approximate
02:12AM 51.0988 -23.6250 91° East  Level FlightAware Approximate
02:13AM 51.0958 -23.3944 91° East  Level FlightAware Approximate
02:14AM 51.0924 -23.1638 91° East  Level FlightAware Approximate
02:15AM 51.0886 -22.9332 91° East  Level FlightAware Approximate
02:16AM 51.0843 -22.7027 92° East  Level FlightAware Approximate
02:17AM 51.0796 -22.4723 92° East  Level FlightAware Approximate
02:18AM 51.0744 -22.2419 92° East  Level FlightAware Approximate
02:19AM 51.0687 -22.0115 92° East  Level FlightAware Approximate
02:20AM 51.0626 -21.7812 92° East  Level FlightAware Approximate
02:21AM 51.0560 -21.5510 93° East  Level FlightAware Approximate
02:22AM 51.0490 -21.3208 93° East  Level FlightAware Approximate
02:23AM 51.0416 -21.0907 93° East  Level FlightAware Approximate
02:24AM 51.0336 -20.8607 93° East  Level FlightAware Approximate
02:25AM 51.0253 -20.6307 93° East  Level FlightAware Approximate
02:26AM 51.0165 -20.4009 93° East  Level FlightAware Approximate
02:27AM 51.0072 -20.1711 94° East  Level FlightAware Approximate
02:28AM 50.9936 -19.9422 100° East  Level FlightAware Approximate
02:29AM 50.9683 -19.7157 100° East  Level FlightAware Approximate
02:30AM 50.9425 -19.4894 100° East  Level FlightAware Approximate
02:31AM 50.9163 -19.2633 100° East  Level FlightAware Approximate
02:32AM 50.8897 -19.0375 101° East  Level FlightAware Approximate
02:33AM 50.8626 -18.8120 101° East  Level FlightAware Approximate
02:34AM 50.8351 -18.5868 101° East  Level FlightAware Approximate
02:35AM 50.8071 -18.3618 101° East  Level FlightAware Approximate
02:36AM 50.7788 -18.1371 101° East  Level FlightAware Approximate
02:37AM 50.7500 -17.9126 101° East  Level FlightAware Approximate
02:38AM 50.7207 -17.6885 102° East  Level FlightAware Approximate
02:39AM 50.6910 -17.4646 102° East  Level FlightAware Approximate
02:40AM 50.6609 -17.2410 102° East  Level FlightAware Approximate
02:41AM 50.6304 -17.0177 102° East  Level FlightAware Approximate
02:42AM 50.5995 -16.7946 102° East  Level FlightAware Approximate
02:43AM 50.5681 -16.5719 102° East  Level FlightAware Approximate
02:44AM 50.5363 -16.3495 103° East  Level FlightAware Approximate
02:45AM 50.5041 -16.1274 103° East  Level FlightAware Approximate
02:46AM 50.4715 -15.9056 103° East  Level FlightAware Approximate
02:47AM 50.4384 -15.6845 103° East  Level FlightAware Approximate
02:48AM 50.4050 -15.4636 103° East  Level FlightAware Approximate
02:49AM 50.3712 -15.2431 103° East  Level FlightAware Approximate
02:50AM 50.3369 -15.0230 104° East  Level FlightAware Approximate
02:51AM 50.3019 -14.8032 104° East  Level FlightAware Approximate
02:52AM 50.2665 -14.5838 104° East  Level FlightAware Approximate
02:53AM 50.2306 -14.3648 104° East  Level FlightAware Approximate
02:54AM 50.1943 -14.1460 104° East  Level FlightAware Approximate
02:55AM 50.1576 -13.9276 105° East  Level FlightAware Approximate
02:56AM 50.1206 -13.7096 105° East  Level FlightAware Approximate
02:57AM 50.0831 -13.4918 105° East  Level FlightAware Approximate
02:58AM 50.0452 -13.2745 105° East  Level FlightAware Approximate
02:59AM 50.0068 -13.0574 105° East  Level FlightAware Approximate
03:00AM 49.9681 -12.8407 105° East  Level FlightAware Approximate
03:01AM 49.9290 -12.6244 106° East  Level FlightAware Approximate
03:02AM 49.8895 -12.4084 106° East  Level FlightAware Approximate
03:03AM 49.8496 -12.1928 106° East  Level FlightAware Approximate
03:04AM 49.8092 -11.9775 106° East  Level FlightAware Approximate
03:05AM 49.7685 -11.7626 106° East  Level FlightAware Approximate
03:06AM 49.7274 -11.5480 106° East  Level FlightAware Approximate
03:07AM 49.6859 -11.3339 107° East  Level FlightAware Approximate
03:08AM 49.6440 -11.1200 107° East  Level FlightAware Approximate
03:08AM 49.3640 -9.9840 107° East 516 594 35,000  Level FlightAware
03:09AM 49.6017 -10.9066 107° East  Level FlightAware Approximate
03:09AM 49.3460 -9.8630 103° East 517 595 35,000  Level FlightAware
03:09AM 49.3220 -9.7090 103° East 517 595 35,000  Level FlightAware
03:10AM 49.3060 -9.5990 103° East 517 595 35,000  Level FlightAware
03:11AM 49.2890 -9.4900 103° East 517 595 35,000  Level FlightAware
03:11AM 49.2640 -9.3200 103° East 517 595 35,000  Level FlightAware
03:12AM 49.2280 -9.1020 104° East 515 593 35,000  Level FlightAware
03:13AM 49.2076 -8.9774 104° East 492 566 35,000  Level FlightAware UK
03:13AM 49.2120 -8.9930 104° East 515 593 35,000  Level FlightAware
03:13AM 49.1880 -8.8550 105° East 515 593 35,000  Level FlightAware
03:14AM 49.1670 -8.7240 104° East 515 593 35,000  Level FlightAware
03:15AM 49.1440 -8.5800 104° East 513 590 35,000  Level FlightAware
03:15AM 49.1240 -8.4570 104° East 513 590 35,000  Level FlightAware
03:16AM 49.1044 -8.3434 104° East 494 568 35,000  Level FlightAware UK
03:16AM 49.1040 -8.3350 104° East 512 589 35,000  Level FlightAware
03:16AM 49.0840 -8.2230 105° East 512 589 35,000  Level FlightAware
03:17AM 49.0640 -8.0970 104° East 512 589 35,000  Level FlightAware
03:17AM 49.0430 -7.9750 105° East 513 590 35,000  Level FlightAware
03:18AM 49.0220 -7.8490 104° East 513 590 35,000  Level FlightAware
03:19AM 48.9990 -7.7270 106° East 514 592 35,000  Level FlightAware
03:19AM 48.9759 -7.6114 106° East 494 568 35,000  Level FlightAware UK
03:19AM 48.9710 -7.6000 106° East 515 593 35,000  Level FlightAware
03:20AM 48.9450 -7.4910 110° East 515 593 35,000  Level FlightAware
03:20AM 48.9160 -7.3760 111° Southeast 516 594 35,000  Level FlightAware
03:21AM 48.8830 -7.2520 112° Southeast 517 595 35,000  Level FlightAware
03:22AM 48.8510 -7.1270 111° Southeast 517 595 35,000  Level FlightAware
03:22AM 48.8241 -7.0236 111° Southeast 490 564 35,000  Level FlightAware UK
03:22AM 48.8210 -7.0120 111° Southeast 518 596 35,000  Level FlightAware
03:23AM 48.7900 -6.8940 112° Southeast 518 596 35,000  Level FlightAware
03:23AM 48.7580 -6.7730 112° Southeast 518 596 35,000  Level FlightAware
03:24AM 48.7220 -6.6380 112° Southeast 518 596 35,000  Level FlightAware
03:25AM 48.6903 -6.5164 112° Southeast 492 566 35,000  Level FlightAware UK
03:25AM 48.6890 -6.5100 112° Southeast 519 597 35,000  Level FlightAware
03:25AM 48.6530 -6.3790 113° Southeast 519 597 35,000  Level FlightAware
03:26AM 48.6260 -6.2750 111° Southeast 519 597 35,000  Level FlightAware
03:26AM 48.5934 -6.1535 111° Southeast 492 566 35,000  Level FlightAware UK
03:26AM 48.5880 -6.1340 111° Southeast 520 598 35,000  Level FlightAware
03:27AM 48.5605 -6.0326 111° Southeast 492 566 35,000  Level FlightAware UK
03:27AM 48.5620 -6.0360 111° Southeast 520 598 35,000  Level FlightAware
03:28AM 48.5270 -5.9090 113° Southeast 521 600 35,000  Level FlightAware
03:28AM 48.4945 -5.7907 113° Southeast 490 564 35,000  Level FlightAware UK
03:28AM 48.4930 -5.7850 113° Southeast 522 601 35,000  Level FlightAware
03:29AM 48.4630 -5.6770 113° Southeast 522 601 35,000  Level FlightAware
03:29AM 48.4300 -5.5530 112° Southeast 520 598 35,000  Level FlightAware
03:30AM 48.4040 -5.4330 108° East 518 596 35,000  Level FlightAware
03:31AM 48.3770 -5.3060 108° East 518 596 35,000  Level FlightAware
03:31AM 48.3530 -5.2000 109° East 518 596 35,000  Level FlightAware
03:32AM 48.3280 -5.0840 108° East 518 596 35,000  Level FlightAware
03:32AM 48.2990 -4.9510 108° East 519 597 35,000  Level FlightAware
03:33AM 48.2750 -4.8450 109° East 519 597 35,000  Level FlightAware
03:33AM 48.2470 -4.7190 108° East 520 598 35,000  Level FlightAware
03:34AM 48.2190 -4.5990 109° East 521 600 35,000  Level FlightAware
03:35AM 48.1910 -4.4730 108° East 522 601 35,000  Level FlightAware
03:35AM 48.1650 -4.3640 110° East 521 600 35,000  Level FlightAware
03:36AM 48.1390 -4.2480 109° East 520 598 35,000  Level FlightAware
03:36AM 48.1090 -4.1190 109° East 520 598 35,000  Level FlightAware
03:37AM 48.0800 -3.9970 110° East 522 601 35,000  Level FlightAware
03:37AM 48.0680 -3.9580 115° Southeast 528 608 35,000  Level FlightAware
03:38AM 48.0180 -3.8560 126° Southeast 533 613 35,000  Level FlightAware
03:38AM 47.9650 -3.7410 125° Southeast 532 612 35,000  Level FlightAware
03:39AM 47.9230 -3.6430 123° Southeast 531 611 35,000  Level FlightAware
03:40AM 47.8650 -3.5150 124° Southeast 533 613 35,000  Level FlightAware
03:40AM 47.8130 -3.4000 124° Southeast 533 613 35,000  Level FlightAware
03:41AM 47.7680 -3.3030 125° Southeast 532 612 35,000  Level FlightAware
03:41AM 47.7200 -3.1960 124° Southeast 531 611 35,000  Level FlightAware
03:42AM 47.6700 -3.0840 124° Southeast 531 611 35,000  Level FlightAware
03:43AM 47.6210 -2.9780 124° Southeast 531 611 35,000  Level FlightAware
03:43AM 47.5760 -2.8790 124° Southeast 532 612 35,000  Level FlightAware
03:44AM 47.5260 -2.7670 123° Southeast 532 612 35,000  Level FlightAware
03:44AM 47.4770 -2.6580 124° Southeast 533 613 35,000  Level FlightAware
03:45AM 47.4330 -2.5650 125° Southeast 532 612 35,000  Level FlightAware
03:45AM 47.3800 -2.4510 124° Southeast 531 611 35,000  Level FlightAware
03:46AM 47.3350 -2.3520 124° Southeast 530 610 35,000  Level FlightAware
03:47AM 47.2860 -2.2490 125° Southeast 526 605 35,000  Level FlightAware
03:47AM 47.2380 -2.1430 124° Southeast 524 603 35,000  Level FlightAware
03:48AM 47.1870 -2.0340 125° Southeast 522 601 35,000  Level FlightAware
03:48AM 47.1330 -1.9200 125° Southeast 521 600 35,000  Level FlightAware
03:49AM 47.0840 -1.8160 125° Southeast 520 598 35,000  Level FlightAware
03:50AM 47.0360 -1.7140 125° Southeast 519 597 35,000  Level FlightAware
03:50AM 46.9900 -1.6170 125° Southeast 518 596 35,000  Level FlightAware
03:51AM 46.9400 -1.5130 125° Southeast 518 596 35,000  Level FlightAware
03:51AM 46.8910 -1.4100 125° Southeast 517 595 35,000  Level FlightAware
03:52AM 46.8420 -1.3100 126° Southeast 518 596 35,000  Level FlightAware
03:53AM 46.7980 -1.2180 125° Southeast 518 596 35,000  Level FlightAware
03:53AM 46.7480 -1.1130 125° Southeast 518 596 35,000  Level FlightAware
03:54AM 46.6950 -1.0050 126° Southeast 517 595 35,000  Level FlightAware
03:54AM 46.6400 -0.8840 123° Southeast 513 590 35,000  Level FlightAware
03:55AM 46.6080 -0.7700 112° Southeast 506 582 35,000  Level FlightAware
03:56AM 46.5850 -0.6280 103° East 504 580 35,000  Level FlightAware
03:56AM 46.5700 -0.5320 103° East 504 580 35,000  Level FlightAware
03:57AM 46.5470 -0.3770 102° East 505 581 35,000  Level FlightAware
03:58AM 46.5320 -0.2810 103° East 505 581 35,000  Level FlightAware
03:58AM 46.5110 -0.1460 103° East 505 581 35,000  Level FlightAware
03:59AM 46.4920 -0.0300 103° East 505 581 35,000  Level FlightAware
03:59AM 46.4750 0.0750 103° East 506 582 35,000  Level FlightAware
04:00AM 46.4550 0.2040 103° East 506 582 35,000  Level FlightAware
04:01AM 46.4330 0.3360 104° East 506 582 35,000  Level FlightAware
04:01AM 46.4130 0.4540 104° East 506 582 35,000  Level FlightAware
04:02AM 46.3950 0.5660 103° East 506 582 35,000  Level FlightAware
04:02AM 46.3750 0.6880 103° East 506 582 35,000  Level FlightAware
04:03AM 46.3580 0.7900 104° East 505 581 35,000  Level FlightAware
04:04AM 46.3360 0.9110 105° East 506 582 35,000  Level FlightAware
04:04AM 46.3160 1.0180 105° East 504 580 35,000  Level FlightAware
04:05AM 46.2960 1.1350 104° East 504 580 35,000  Level FlightAware
04:05AM 46.2760 1.2490 104° East 503 579 35,000  Level FlightAware
04:06AM 46.2540 1.3800 104° East 502 578 35,000  Level FlightAware
04:07AM 46.2370 1.5010 101° East 501 577 35,000  Level FlightAware
04:09AM 46.0733 1.9496 118° Southeast  Level FlightAware Approximate
04:11AM 45.9783 2.2065 118° Southeast  Level FlightAware Approximate
04:12AM 45.9101 2.3895 118° Southeast  Level FlightAware Approximate
04:13AM 45.8416 2.5720 118° Southeast  Level FlightAware Approximate
04:14AM 45.7728 2.7541 118° Southeast  Level FlightAware Approximate
04:15AM 45.7038 2.9357 119° Southeast  Level FlightAware Approximate
04:16AM 45.6344 3.1168 119° Southeast  Level FlightAware Approximate
04:17AM 45.5648 3.2975 119° Southeast  Level FlightAware Approximate
04:18AM 45.4948 3.4778 119° Southeast  Level FlightAware Approximate
04:19AM 45.4246 3.6576 119° Southeast  Level FlightAware Approximate
04:20AM 45.3541 3.8370 119° Southeast  Level FlightAware Approximate
04:21AM 45.2834 4.0159 119° Southeast  Level FlightAware Approximate
04:22AM 45.2123 4.1944 119° Southeast  Level FlightAware Approximate
04:23AM 45.1411 4.3729 119° Southeast  Level FlightAware Approximate
04:24AM 45.0709 4.5516 119° Southeast  Level FlightAware Approximate
04:25AM 45.0005 4.7299 119° Southeast  Level FlightAware Approximate
04:26AM 44.9298 4.9078 119° Southeast  Level FlightAware Approximate
04:27AM 44.8588 5.0852 119° Southeast  Level FlightAware Approximate
04:28AM 44.7875 5.2622 120° Southeast  Level FlightAware Approximate
04:29AM 44.7160 5.4388 120° Southeast  Level FlightAware Approximate
04:30AM 44.6442 5.6149 120° Southeast  Level FlightAware Approximate
04:31AM 44.5721 5.7906 120° Southeast  Level FlightAware Approximate
04:32AM 44.4998 5.9658 120° Southeast  Level FlightAware Approximate
04:33AM 44.4272 6.1406 120° Southeast  Level FlightAware Approximate
04:34AM 44.3543 6.3150 120° Southeast  Level FlightAware Approximate
04:35AM 44.2812 6.4889 120° Southeast  Level FlightAware Approximate
04:36AM 44.2078 6.6624 121° Southeast  Level FlightAware Approximate
04:37AM 44.1341 6.8355 121° Southeast  Level FlightAware Approximate
04:38AM 44.0602 7.0082 121° Southeast  Level FlightAware Approximate
04:39AM 43.9860 7.1804 121° Southeast  Level FlightAware Approximate
04:40AM 43.9116 7.3521 121° Southeast  Level FlightAware Approximate
04:41AM 43.8369 7.5235 121° Southeast  Level FlightAware Approximate
04:42AM 43.7619 7.6944 121° Southeast  Level FlightAware Approximate
04:43AM 43.6867 7.8649 121° Southeast  Level FlightAware Approximate
04:44AM 43.6113 8.0350 121° Southeast  Level FlightAware Approximate
04:45AM 43.5355 8.2046 122° Southeast  Level FlightAware Approximate
04:46AM 43.4596 8.3738 122° Southeast  Level FlightAware Approximate
04:47AM 43.3834 8.5426 122° Southeast  Level FlightAware Approximate
04:48AM 43.3069 8.7110 122° Southeast  Level FlightAware Approximate
04:49AM 43.2302 8.8789 122° Southeast  Level FlightAware Approximate
04:50AM 43.1533 9.0464 122° Southeast  Level FlightAware Approximate
04:51AM 43.0761 9.2135 122° Southeast  Level FlightAware Approximate
04:52AM 42.9986 9.3802 122° Southeast  Level FlightAware Approximate
04:53AM 42.9210 9.5464 122° Southeast  Level FlightAware Approximate
04:54AM 42.8431 9.7123 123° Southeast  Level FlightAware Approximate
04:55AM 42.7649 9.8777 123° Southeast  Level FlightAware Approximate
04:56AM 42.6865 10.0427 123° Southeast  Level FlightAware Approximate
04:57AM 42.6079 10.2073 123° Southeast  Level FlightAware Approximate
04:58AM 42.5290 10.3715 123° Southeast  Level FlightAware Approximate
04:59AM 42.4499 10.5352 123° Southeast  Level FlightAware Approximate
05:00AM 42.3706 10.6985 123° Southeast  Level FlightAware Approximate
05:01AM 42.2910 10.8615 123° Southeast  Level FlightAware Approximate
05:02AM 42.2113 11.0240 124° Southeast  Level FlightAware Approximate
05:03AM 42.1312 11.1861 124° Southeast  Level FlightAware Approximate
05:04AM 42.0510 11.3478 124° Southeast  Level FlightAware Approximate
05:05AM 41.9595 11.4971 134° Southeast  Level FlightAware Approximate
05:06AM 41.8596 11.6372 134° Southeast  Level FlightAware Approximate
05:07AM 41.7596 11.7768 134° Southeast  Level FlightAware Approximate
05:08AM 41.6594 11.9160 134° Southeast  Level FlightAware Approximate
05:09AM 41.5591 12.0548 134° Southeast  Level FlightAware Approximate
05:10AM 41.4585 12.1931 134° Southeast  Level FlightAware Approximate
05:11AM 41.3578 12.3310 134° Southeast  Level FlightAware Approximate
05:12AM 41.2570 12.4685 134° Southeast  Level FlightAware Approximate
05:13AM 41.1560 12.6056 134° Southeast  Level FlightAware Approximate
05:14AM 41.0548 12.7422 134° Southeast  Level FlightAware Approximate
05:15AM 40.9534 12.8784 135° Southeast  Level FlightAware Approximate
05:16AM 40.8767 13.0349 110° East  Level FlightAware Approximate
05:17AM 40.8273 13.2143 110° East  Level FlightAware Approximate
05:18AM 40.7777 13.3933 110° East  Level FlightAware Approximate
05:19AM 40.7277 13.5721 110° East  Level FlightAware Approximate
05:20AM 40.6775 13.7506 110° East  Level FlightAware Approximate
05:21AM 40.6270 13.9288 110° East  Level FlightAware Approximate
05:22AM 40.5762 14.1068 111° Southeast  Level FlightAware Approximate
05:23AM 40.5252 14.2845 111° Southeast  Level FlightAware Approximate
05:24AM 40.4739 14.4619 111° Southeast  Level FlightAware Approximate
05:25AM 40.4223 14.6391 111° Southeast  Level FlightAware Approximate
05:26AM 40.3705 14.8160 111° Southeast  Level FlightAware Approximate
05:27AM 40.3184 14.9926 111° Southeast  Level FlightAware Approximate
05:28AM 40.2660 15.1690 111° Southeast  Level FlightAware Approximate
05:29AM 40.2133 15.3450 111° Southeast  Level FlightAware Approximate
05:30AM 40.1604 15.5208 111° Southeast  Level FlightAware Approximate
05:31AM 40.1072 15.6963 112° Southeast  Level FlightAware Approximate
05:32AM 40.0537 15.8716 112° Southeast  Level FlightAware Approximate
05:33AM 40.0000 16.0466 112° Southeast  Level FlightAware Approximate
05:34AM 39.9460 16.2212 112° Southeast  Level FlightAware Approximate
05:35AM 39.8918 16.3957 112° Southeast  Level FlightAware Approximate
05:36AM 39.8373 16.5698 112° Southeast  Level FlightAware Approximate
05:37AM 39.7825 16.7437 112° Southeast  Level FlightAware Approximate
05:38AM 39.7275 16.9172 112° Southeast  Level FlightAware Approximate
05:39AM 39.6722 17.0906 112° Southeast  Level FlightAware Approximate
05:40AM 39.6167 17.2636 113° Southeast  Level FlightAware Approximate
05:41AM 39.5609 17.4363 113° Southeast  Level FlightAware Approximate
05:42AM 39.5049 17.6088 113° Southeast  Level FlightAware Approximate
05:43AM 39.4486 17.7810 113° Southeast  Level FlightAware Approximate
05:44AM 39.3920 17.9529 113° Southeast  Level FlightAware Approximate
05:45AM 39.3352 18.1246 113° Southeast  Level FlightAware Approximate
05:46AM 39.2781 18.2959 113° Southeast  Level FlightAware Approximate
05:47AM 39.2208 18.4670 113° Southeast  Level FlightAware Approximate
05:48AM 39.1633 18.6378 113° Southeast  Level FlightAware Approximate
05:49AM 39.1054 18.8083 114° Southeast  Level FlightAware Approximate
05:50AM 39.0474 18.9786 114° Southeast  Level FlightAware Approximate
05:51AM 38.9891 19.1485 114° Southeast  Level FlightAware Approximate
05:52AM 38.9307 19.3176 114° Southeast  Level FlightAware Approximate
05:53AM 38.8721 19.4864 114° Southeast  Level FlightAware Approximate
05:54AM 38.8133 19.6550 114° Southeast  Level FlightAware Approximate
05:55AM 38.7542 19.8232 114° Southeast  Level FlightAware Approximate
05:56AM 38.6949 19.9912 114° Southeast  Level FlightAware Approximate
05:57AM 38.6353 20.1589 114° Southeast  Level FlightAware Approximate
05:58AM 38.5756 20.3263 115° Southeast  Level FlightAware Approximate
05:59AM 38.5155 20.4935 115° Southeast  Level FlightAware Approximate
06:00AM 38.4552 20.6603 115° Southeast  Level FlightAware Approximate
06:01AM 38.3947 20.8269 115° Southeast  Level FlightAware Approximate
06:02AM 38.3340 20.9932 115° Southeast  Level FlightAware Approximate
06:03AM 38.2730 21.1592 115° Southeast  Level FlightAware Approximate
06:04AM 38.2118 21.3250 115° Southeast  Level FlightAware Approximate
06:05AM 38.1504 21.4904 115° Southeast  Level FlightAware Approximate
06:06AM 38.0887 21.6556 115° Southeast  Level FlightAware Approximate
06:06AM 37.8000 21.3330 115° Southeast 526 605 37,000  Level FlightAware
06:07AM 38.0268 21.8205 115° Southeast  Level FlightAware Approximate
06:07AM 37.7600 21.4570 112° Southeast 525 604 37,000  Level FlightAware
06:07AM 37.7260 21.5620 112° Southeast 525 604 37,000  Level FlightAware
06:08AM 37.6980 21.6510 112° Southeast 525 604 37,000  Level FlightAware
06:08AM 37.6700 21.7390 112° Southeast 525 604 37,000  Level FlightAware
06:09AM 37.6420 21.8260 112° Southeast 525 604 37,000  Level FlightAware
06:10AM 37.6140 21.9130 112° Southeast 525 604 37,000  Level FlightAware
06:10AM 37.5860 22.0000 112° Southeast 525 604 37,000  Level FlightAware
06:11AM 37.5560 22.0940 112° Southeast 525 604 37,000  Level FlightAware
06:11AM 37.5280 22.1810 112° Southeast 525 604 37,000  Level FlightAware
06:12AM 37.5000 22.2680 112° Southeast 525 604 37,000  Level FlightAware
06:13AM 37.4190 22.4990 114° Southeast 512 589 37,000  Level FlightAware
06:13AM 37.3850 22.5980 113° Southeast 508 585 37,000  Level FlightAware
06:14AM 37.3520 22.6960 113° Southeast 510 587 37,000  Level FlightAware
06:15AM 37.3200 22.7940 112° Southeast 506 582 37,000  Level FlightAware
06:15AM 37.2810 22.9090 113° Southeast 508 585 37,000  Level FlightAware
06:16AM 37.2480 23.0060 113° Southeast 509 586 37,000  Level FlightAware
06:16AM 37.2140 23.1070 113° Southeast 509 586 37,000  Level FlightAware
06:17AM 37.1800 23.2050 114° Southeast 510 587 37,000  Level FlightAware
06:18AM 37.1510 23.2890 113° Southeast 509 586 37,000  Level FlightAware
06:18AM 37.1170 23.3890 113° Southeast 508 585 37,000  Level FlightAware
06:19AM 37.0860 23.4790 113° Southeast 509 586 37,000  Level FlightAware
06:19AM 37.0530 23.5730 114° Southeast 510 587 37,000  Level FlightAware
06:20AM 37.0180 23.6740 113° Southeast 511 588 37,000  Level FlightAware
06:21AM 36.9840 23.7740 113° Southeast 513 590 37,000  Level FlightAware
06:21AM 36.9490 23.8720 114° Southeast 515 593 37,000  Level FlightAware
06:22AM 36.9190 23.9590 113° Southeast 517 595 37,000  Level FlightAware
06:22AM 36.8850 24.0550 114° Southeast 518 596 37,000  Level FlightAware
06:23AM 36.8540 24.1430 114° Southeast 519 597 37,000  Level FlightAware
06:23AM 36.8170 24.2480 114° Southeast 521 600 37,000  Level FlightAware
06:24AM 36.7820 24.3470 114° Southeast 521 600 37,000  Level FlightAware
06:25AM 36.7470 24.4450 114° Southeast 521 600 37,000  Level FlightAware
06:25AM 36.7160 24.5330 114° Southeast 520 598 37,000  Level FlightAware
06:26AM 36.6790 24.6340 115° Southeast 520 598 37,000  Level FlightAware
06:26AM 36.6440 24.7330 114° Southeast 521 600 37,000  Level FlightAware
06:27AM 36.6150 24.8150 114° Southeast 520 598 37,000  Level FlightAware
06:28AM 36.5750 24.9240 115° Southeast 520 598 37,000  Level FlightAware
06:28AM 36.5430 25.0110 115° Southeast 520 598 37,000  Level FlightAware
06:29AM 36.5070 25.1120 114° Southeast 520 598 37,000  Level FlightAware
06:29AM 36.4710 25.2100 115° Southeast 519 597 37,000  Level FlightAware
06:30AM 36.4360 25.3050 115° Southeast 517 595 37,000  Level FlightAware
06:30AM 36.4040 25.3910 115° Southeast 517 595 37,000  Level FlightAware
06:31AM 36.3690 25.4880 114° Southeast 518 596 37,000  Level FlightAware
06:32AM 36.3320 25.5880 115° Southeast 519 597 37,000  Level FlightAware
06:32AM 36.3000 25.6750 115° Southeast 519 597 37,000  Level FlightAware
06:33AM 36.2640 25.7720 115° Southeast 520 598 37,000  Level FlightAware
06:33AM 36.2290 25.8670 115° Southeast 521 600 37,000  Level FlightAware
06:34AM 36.1910 25.9670 115° Southeast 521 600 37,000  Level FlightAware
06:34AM 36.1590 26.0540 114° Southeast 522 601 37,000  Level FlightAware
06:35AM 36.1220 26.1510 115° Southeast 522 601 37,000  Level FlightAware
06:36AM 36.0840 26.2510 115° Southeast 522 601 37,000  Level FlightAware
06:36AM 36.0510 26.3400 115° Southeast 521 600 37,000  Level FlightAware
06:37AM 36.0140 26.4370 115° Southeast 521 600 37,000  Level FlightAware
06:37AM 35.9810 26.5230 115° Southeast 520 598 37,000  Level FlightAware
06:38AM 35.9460 26.6150 115° Southeast 520 598 37,000  Level FlightAware
06:39AM 35.9080 26.7170 115° Southeast 521 600 37,000  Level FlightAware
06:39AM 35.8610 26.8380 116° Southeast 521 600 37,000  Level FlightAware
06:40AM 35.8300 26.9210 115° Southeast 521 600 37,000  Level FlightAware
06:41AM 35.7980 27.0030 116° Southeast 521 600 37,000  Level FlightAware
06:41AM 35.7670 27.0860 115° Southeast 521 600 37,000  Level FlightAware
06:42AM 35.7350 27.1700 115° Southeast 521 600 37,000  Level FlightAware
06:42AM 35.7040 27.2530 115° Southeast 521 600 37,000  Level FlightAware
06:43AM 35.6740 27.3330 115° Southeast 521 600 37,000  Level FlightAware
06:44AM 35.6430 27.4150 115° Southeast 521 600 37,000  Level FlightAware
06:44AM 35.6110 27.4970 116° Southeast 521 600 37,000  Level FlightAware
06:45AM 35.5800 27.5790 115° Southeast 521 600 37,000  Level FlightAware
06:45AM 35.5490 27.6620 115° Southeast 521 600 37,000  Level FlightAware
06:46AM 35.5180 27.7440 115° Southeast 521 600 37,000  Level FlightAware
06:47AM 35.4860 27.8280 115° Southeast 521 600 37,000  Level FlightAware
06:47AM 35.4550 27.9100 115° Southeast 521 600 37,000  Level FlightAware
06:48AM 35.3300 28.1880 119° Southeast 518 596 37,000  Level FlightAware
06:48AM 35.2960 28.2720 116° Southeast 519 597 37,000  Level FlightAware
06:49AM 35.2470 28.3960 116° Southeast 520 598 37,000  Level FlightAware
06:50AM 35.2180 28.4650 117° Southeast 520 598 37,000  Level FlightAware
06:50AM 35.1750 28.5730 116° Southeast 521 600 37,000  Level FlightAware
06:51AM 35.1370 28.6660 117° Southeast 521 600 37,000  Level FlightAware
06:52AM 35.1050 28.7470 116° Southeast 521 600 37,000  Level FlightAware
06:52AM 35.0720 28.8280 116° Southeast 521 600 37,000  Level FlightAware
06:53AM 35.0400 28.9090 116° Southeast 521 600 37,000  Level FlightAware
06:53AM 35.0070 28.9930 116° Southeast 521 600 37,000  Level FlightAware
06:54AM 34.9740 29.0740 116° Southeast 521 600 37,000  Level FlightAware
06:55AM 34.9420 29.1540 116° Southeast 521 600 37,000  Level FlightAware
06:55AM 34.9100 29.2350 116° Southeast 521 600 37,000  Level FlightAware
06:56AM 34.8770 29.3160 116° Southeast 521 600 37,000  Level FlightAware
06:56AM 34.7830 29.5260 119° Southeast 37,000  Level FlightAware
06:57AM 34.7490 29.6060 117° Southeast 516 594 37,000  Level FlightAware
06:57AM 34.7050 29.7110 117° Southeast 517 595 37,000  Level FlightAware
06:58AM 34.6680 29.7990 117° Southeast 518 596 37,000  Level FlightAware
06:59AM 34.6360 29.8720 118° Southeast 522 601 37,000  Level FlightAware
06:59AM 34.6000 29.9590 117° Southeast 522 601 37,000  Level FlightAware
07:00AM 34.5660 30.0390 117° Southeast 522 601 37,000  Level FlightAware
07:00AM 34.5270 30.0990 128° Southeast 974 1121 37,000  Level FlightAware
07:01AM 34.4490 30.2630 120° Southeast 37,000  Level FlightAware
07:02AM 34.4010 30.3640 120° Southeast 520 598 37,000  Level FlightAware
07:02AM 34.3580 30.4540 120° Southeast 519 597 37,000  Level FlightAware
07:03AM 34.3150 30.5420 121° Southeast 518 596 37,000  Level FlightAware
07:04AM 34.2740 30.6270 120° Southeast 518 596 37,000  Level FlightAware
07:04AM 34.2320 30.7170 119° Southeast 518 596 37,000  Level FlightAware
07:05AM 34.1900 30.8020 121° Southeast 518 596 37,000  Level FlightAware
07:05AM 34.1500 30.8870 120° Southeast 518 596 37,000  Level FlightAware
07:06AM 34.1030 30.9820 121° Southeast 519 597 37,000  Level FlightAware
07:06AM 34.0660 31.0590 120° Southeast 515 593 37,000  Level FlightAware
07:07AM 34.0240 31.1440 121° Southeast 519 597 37,000  Level FlightAware
07:08AM 33.9760 31.2410 121° Southeast 518 596 37,000  Level FlightAware
07:08AM 33.9260 31.3430 121° Southeast 515 593 37,000  Level FlightAware
07:09AM 33.8840 31.4300 120° Southeast 515 593 37,000 -720 Level FlightAware
07:09AM 33.8400 31.5170 121° Southeast 520 598 36,200 -1,560 Descending FlightAware
07:10AM 33.7920 31.6140 121° Southeast 532 612 35,100 -900 Descending FlightAware
07:11AM 33.7510 31.6970 121° Southeast 532 612 35,000 -120 Descending FlightAware
07:11AM 33.6930 31.8140 121° Southeast 532 612 35,000  Level FlightAware
07:12AM 33.6460 31.9080 121° Southeast 532 612 35,000  Level FlightAware
07:13AM 33.6010 31.9960 122° Southeast 532 612 35,000  Level FlightAware
07:13AM 33.5630 32.0750 120° Southeast 532 612 35,000  Level FlightAware
07:14AM 33.5190 32.1610 122° Southeast 532 612 35,000  Level FlightAware
07:14AM 33.4660 32.2670 121° Southeast 533 613 35,000 -120 Level FlightAware
07:15AM 33.4300 32.3380 121° Southeast 532 612 34,900 -840 Descending FlightAware
07:16AM 33.3850 32.4260 121° Southeast 533 613 34,100 -1,380 Descending FlightAware
07:16AM 33.3400 32.5170 121° Southeast 530 610 33,300 -1,380 Descending FlightAware
07:17AM 33.2900 32.6120 122° Southeast 527 606 32,500 -1,140 Descending FlightAware
07:17AM 33.2340 32.7230 121° Southeast 521 600 31,800 -1,020 Descending FlightAware
07:18AM 33.1880 32.8140 121° Southeast 516 594 31,200 -960 Descending FlightAware
07:19AM 33.1480 32.8910 122° Southeast 515 593 30,700 -960 Descending FlightAware
07:19AM 33.0850 33.0130 122° Southeast 649 747 29,900 -1,020 Descending FlightAware
07:20AM 33.0410 33.0990 121° Southeast 506 582 29,300 -900 Descending FlightAware
07:21AM 32.9790 33.2190 122° Southeast 496 571 28,600 -780 Descending FlightAware
07:22AM 32.9290 33.3180 121° Southeast 483 556 28,100 -2,160 Descending FlightAware
07:22AM 32.8810 33.4090 122° Southeast 462 532 25,600 -3,120 Descending FlightAware
07:23AM 32.8390 33.4870 123° Southeast 449 517 24,200 -2,400 Descending FlightAware
07:24AM 32.8010 33.5600 122° Southeast 438 504 22,800 -2,400 Descending FlightAware
07:24AM 32.7690 33.6230 121° Southeast 430 495 21,600 -2,340 Descending FlightAware
07:25AM 32.7280 33.7000 122° Southeast 419 482 20,100 -2,520 Descending FlightAware
07:25AM 32.6910 33.7720 121° Southeast 414 476 18,500 -2,520 Descending FlightAware
07:26AM 32.6550 33.8390 123° Southeast 405 466 17,100 -2,340 Descending FlightAware
07:26AM 32.6210 33.9040 122° Southeast 396 456 15,800 -2,280 Descending FlightAware
07:27AM 32.5860 33.9700 122° Southeast 388 447 14,500 -2,220 Descending FlightAware
07:28AM 32.5580 34.0210 123° Southeast 381 438 13,400 -2,220 Descending FlightAware
07:28AM 32.5230 34.0900 121° Southeast 372 428 12,000 -2,220 Descending FlightAware
07:29AM 32.4910 34.1480 123° Southeast 363 418 10,800 -1,080 Descending FlightAware
07:30AM 32.4330 34.2230 132° Southeast 317 365 10,400 -420 Descending FlightAware
07:30AM 32.4010 34.2600 136° Southeast 290 334 10,200 -600 Descending FlightAware
07:31AM 32.3820 34.2820 136° Southeast 275 316 9,900 -1,260 Descending FlightAware
07:31AM 32.3550 34.3140 135° Southeast 268 308 9,200 -1,320 Descending FlightAware
07:31AM 32.3340 34.3390 135° Southeast 271 312 8,800 -1,260 Descending FlightAware
07:32AM 32.3200 34.3540 138° Southeast 269 310 8,400 -1,380 Descending FlightAware
07:32AM 32.3050 34.3730 133° Southeast 267 307 8,000 -1,200 Descending FlightAware
07:32AM 32.2860 34.3940 137° Southeast 261 300 7,600 -1,320 Descending FlightAware
07:33AM 32.2690 34.4140 135° Southeast 258 297 7,100 -780 Descending FlightAware
07:33AM 32.2420 34.4460 135° Southeast 258 297 6,900 -1,380 Descending FlightAware
07:33AM 32.2320 34.4580 135° Southeast 254 292 6,100 -2,580 Descending FlightAware
07:34AM 32.2160 34.4890 121° Southeast 250 288 5,500 -1,200 Descending FlightAware
07:34AM 32.2050 34.5090 123° Southeast 248 285 5,200 -420 Descending FlightAware
07:35AM 32.1810 34.5550 122° Southeast 247 284 5,100 -120 Descending FlightAware
07:35AM 32.1720 34.5740 119° Southeast 249 287 5,100  Level FlightAware
07:36AM 32.1570 34.6000 124° Southeast 251 289 5,100  Level FlightAware
07:36AM 32.1460 34.6220 121° Southeast 251 289 5,100  Level FlightAware
07:36AM 32.1320 34.6470 123° Southeast 251 289 5,100  Level FlightAware
07:37AM 32.1200 34.6680 124° Southeast 252 290 5,100  Level FlightAware
07:37AM 32.1070 34.6910 124° Southeast 252 290 5,100  Level FlightAware
07:37AM 32.0920 34.7200 121° Southeast 252 290 5,100  Level FlightAware
07:38AM 32.0770 34.7480 122° Southeast 252 290 5,100  Level FlightAware
07:38AM 32.0630 34.7710 126° Southeast 225 259 5,100 -360 Level FlightAware
07:38AM 32.0480 34.7890 135° Southeast 222 255 4,900 -360 Descending FlightAware
07:39AM 32.0250 34.8160 135° Southeast 221 254 4,800 -300 Descending FlightAware
07:39AM 32.0030 34.8410 136° Southeast 224 258 4,600 -300 Descending FlightAware
07:40AM 31.9770 34.8700 137° Southeast 221 254 4,500 -900 Descending FlightAware
07:41AM 31.9750 34.9020 94° East 182 209 3,600 -1,740 Descending FlightAware
07:41AM 31.9770 34.9140 79° East 177 204 3,200 -1,740 Descending FlightAware
07:41AM 31.9840 34.9440 75° East 176 203 2,300 -1,740 Descending FlightAware
07:41AM 31.9870 34.9520 66° East 184 212 2,100 -1,200 Descending FlightAware
07:42AM 31.9930 34.9610 52° Northeast 181 208 1,900 -780 Descending FlightAware
07:42AM 31.9970 34.9630 23° Northeast 179 206 1,900 -720 Level FlightAware
07:42AM 32.0200 34.9580 350° North 170 196 1,500 -600 Descending FlightAware
07:43AM 32.0430 34.9440 333° Northwest 170 196 1,200 -480 Descending FlightAware